Aérodrome :
LOGIN :

S'inscrire | Disclaimer

   EN    FR    IT 

 










Légende :    VFR   VFR Marginal   IFR   IFR Intensif   IFR Très Intensif
Visi : 
Plafond : 
>= 8 km
>= 3000ft
5 à 8 km
1000 à 3000 ft
1500m à 5 km
500 à 1000 ft
800 à 1500m
200 à 500 ft
< 800m
< 200 ft
Symboles :   Orages  Brouillard  Fortes neiges  Fortes précipitations  Vent > 20 kt
SIGMETs :   Divers  Orages  Givrage  Turbulence  Onde Orograph.  Cendres Volcan.







- Altitude de l'aérodrome : 33 ft
- Code IATA : MHZ


EGUN - RAF Mildenhall

DERNIER METAR :
  • 231256Z AUTO 18004KT 9999 FEW060 SCT200 31/16 A2996 RMK AO2 RAB02E09DZB09E12RAB33E47 SLP148 P0000 T03110155 $

METARs EXPIRÉS :
  • 231247Z AUTO 19009KT 9999 FEW060 FEW150 SCT200 32/16 A2996 RMK AO2 RAB02E09DZB09E12RAB33E47 SLP148 $
  • 231233Z AUTO 22005KT 9999 -RA FEW060 SCT200 30/16 A2996 RMK AO2 RAB02E09DZB09E12RAB33 SLP148 $
  • 231212Z AUTO 20006KT 9999 FEW060 FEW170 FEW210 30/16 A2997 RMK AO2 RAB02E09DZB09E12 SLP152 $
  • 231202Z AUTO 22006KT 9999 -RA FEW060 FEW170 29/16 A2997 RMK AO2 RAB02 SLP152 $
  • 231056Z AUTO 16007KT 9999 FEW130 FEW160 FEW180 30/17 A2998 RMK AO2 RAB14E23RAB33E34RAB37E50 SLP155 P0000 T02960167 $
  • 231050Z AUTO 24006KT 9999 FEW130 FEW160 FEW180 29/17 A2998 RMK AO2 RAB14E23RAB33E34RAB37E50 SLP155 $
  • 231040Z AUTO 00000KT 9999 -RA FEW140 30/17 A2998 RMK AO2 RAB14E23RAB33E34RAB37 SLP155 $

TAF TAF EGUN
Valide du 23 à 12h jusqu'au 24 à 18h UTC


231208Z 2312/2418 24009KT 9999 SCT050 QNH2990INS
BECMG 2320/2321 VRB06KT 9999 FEW045 QNH2988INS
BECMG 2407/2408 26009KT 9999 SCT030 BKN050 QNH2996INS
TEMPO 2415/2418 25015KT 8000 -SHRA BKN030 TX33/2315Z TN15/2405Z
Pas de NOTAMs connus pour ce terrain.



MET'MAP, la Météo Aéronautique d'un coup d'oeil ! - Copyright ORBIFLY Décembre 2007 - Disclaimer

ORBIFLY MET'MAP TEAM :

Programmation & Développement : Alexandra Zaïnal
Conception & Développement : Baudouin d'Aumeries
Co-Programmation & Développement : Marc-Olivier Méhu
Soutien technique & logistique : Manuel Goepfert

Contact : metmap@orbifly.com




SOURCES & CREDITS :

   NOAA